createdAt,value
2019-02-04T00:03:00.120Z,-0.68
2019-02-04T00:06:15.285Z,-0.77
2019-02-04T00:09:30.767Z,-0.92
2019-02-04T00:12:45.977Z,-1.03
2019-02-04T00:16:01.168Z,-1.03
2019-02-04T00:19:16.555Z,-1.05
2019-02-04T00:22:32.163Z,-1.06
2019-02-04T00:25:47.339Z,-1.10
2019-02-04T00:29:02.830Z,-1.12
2019-02-04T00:32:17.979Z,-1.14
2019-02-04T00:35:33.497Z,-1.17
2019-02-04T00:38:48.671Z,-1.20
2019-02-04T00:42:04.074Z,-1.25
2019-02-04T00:45:19.664Z,-1.24
2019-02-04T00:48:35.152Z,-1.29
2019-02-04T00:51:50.576Z,-1.35
2019-02-04T00:55:06.355Z,-1.37
2019-02-04T00:58:21.641Z,-1.38
2019-02-04T01:01:37.187Z,-1.47
2019-02-04T01:04:52.523Z,-1.53
2019-02-04T01:08:07.669Z,-1.53
2019-02-04T01:11:22.875Z,-1.60
2019-02-04T01:14:38.792Z,-1.66
2019-02-04T01:17:54.045Z,-1.69
2019-02-04T01:21:09.401Z,-1.86
2019-02-04T01:24:24.565Z,-1.88
2019-02-04T01:27:40.021Z,-1.80
2019-02-04T01:30:55.824Z,-1.85
2019-02-04T01:34:10.992Z,-1.84
2019-02-04T01:37:26.609Z,-1.82
2019-02-04T01:40:41.966Z,-1.81
2019-02-04T01:43:57.263Z,-1.82
2019-02-04T01:47:14.765Z,-1.86
2019-02-04T01:50:29.678Z,-2.02
2019-02-04T01:53:44.907Z,-2.08
2019-02-04T01:57:01.700Z,-2.03
2019-02-04T02:00:19.459Z,-1.97
2019-02-04T02:03:34.831Z,-2.01
2019-02-04T02:06:50.123Z,-2.29
2019-02-04T02:10:05.721Z,-2.27
2019-02-04T02:13:21.199Z,-2.19
2019-02-04T02:16:36.560Z,-2.23
2019-02-04T02:19:51.935Z,-2.25
2019-02-04T02:23:07.652Z,-2.21
2019-02-04T02:26:23.120Z,-2.20
2019-02-04T02:29:38.510Z,-2.25
2019-02-04T02:32:53.891Z,-2.30
2019-02-04T02:36:09.795Z,-2.33
2019-02-04T02:39:25.111Z,-2.39
2019-02-04T02:42:40.452Z,-2.41
2019-02-04T02:45:55.699Z,-2.38
2019-02-04T02:49:11.088Z,-2.43
2019-02-04T02:52:26.801Z,-2.52
2019-02-04T02:55:42.078Z,-2.52
2019-02-04T02:58:57.280Z,-2.50
2019-02-04T03:02:12.688Z,-2.54
2019-02-04T03:05:29.028Z,-2.56
2019-02-04T03:08:44.082Z,-2.62
2019-02-04T03:11:59.470Z,-2.64
2019-02-04T03:15:14.902Z,-2.64
2019-02-04T03:18:30.203Z,-2.73
2019-02-04T03:21:45.422Z,-2.90
2019-02-04T03:25:01.236Z,-2.80
2019-02-04T03:28:16.599Z,-2.76
2019-02-04T03:31:32.062Z,-2.81
2019-02-04T03:34:47.177Z,-2.78
2019-02-04T03:38:02.230Z,-2.79
2019-02-04T03:41:17.332Z,-2.90
2019-02-04T03:44:32.659Z,-2.90
2019-02-04T03:47:47.951Z,-2.93
2019-02-04T03:51:03.780Z,-2.86
2019-02-04T03:54:19.014Z,-2.82
2019-02-04T03:57:34.223Z,-2.86
2019-02-04T04:00:49.771Z,-2.90
2019-02-04T04:04:05.165Z,-2.95
2019-02-04T04:07:20.818Z,-3.02
2019-02-04T04:10:36.203Z,-3.08
2019-02-04T04:13:52.142Z,-3.04
2019-02-04T04:17:07.594Z,-3.07
2019-02-04T04:20:22.946Z,-3.12
2019-02-04T04:23:38.320Z,-3.06
2019-02-04T04:26:53.503Z,-3.10
2019-02-04T04:30:17.584Z,-3.26
2019-02-04T04:33:32.747Z,-3.19
2019-02-04T04:36:47.808Z,-3.17
2019-02-04T04:40:03.120Z,-3.18
2019-02-04T04:43:18.243Z,-3.20
2019-02-04T04:46:33.523Z,-3.37
2019-02-04T04:49:48.724Z,-3.48
2019-02-04T04:53:04.022Z,-3.40
2019-02-04T04:56:19.100Z,-3.30
2019-02-04T04:59:34.299Z,-3.28
2019-02-04T05:02:49.847Z,-3.29
2019-02-04T05:06:05.297Z,-3.30
2019-02-04T05:09:20.443Z,-3.32
2019-02-04T05:12:36.580Z,-3.34
2019-02-04T05:15:51.793Z,-3.39
2019-02-04T05:19:06.900Z,-3.44
2019-02-04T05:22:22.188Z,-3.43
2019-02-04T05:25:37.584Z,-3.46
2019-02-04T05:28:52.894Z,-3.44
2019-02-04T05:32:08.742Z,-3.51
2019-02-04T05:35:24.075Z,-3.58
2019-02-04T05:38:39.312Z,-3.69
2019-02-04T05:41:54.701Z,-3.66
2019-02-04T05:45:10.819Z,-3.69
2019-02-04T05:48:26.133Z,-3.68
2019-02-04T05:51:41.277Z,-3.67
2019-02-04T05:54:56.474Z,-3.63
2019-02-04T05:58:11.847Z,-3.75
2019-02-04T06:01:26.869Z,-3.82
2019-02-04T06:04:42.320Z,-3.79
2019-02-04T06:07:58.274Z,-3.75
2019-02-04T06:11:13.459Z,-3.87
2019-02-04T06:14:29.957Z,-3.98
2019-02-04T06:17:45.698Z,-4.00
2019-02-04T06:21:01.702Z,-3.89
2019-02-04T06:24:17.167Z,-3.84
2019-02-04T06:27:32.633Z,-3.86
2019-02-04T06:30:47.783Z,-3.91
2019-02-04T06:34:03.279Z,-4.14
2019-02-04T06:37:18.540Z,-4.19
2019-02-04T06:40:35.756Z,-4.06
2019-02-04T06:43:51.720Z,-3.97
2019-02-04T06:47:06.989Z,-3.88
2019-02-04T06:50:22.471Z,-3.85
2019-02-04T06:53:37.636Z,-3.88
2019-02-04T06:56:53.545Z,-3.89
2019-02-04T07:00:08.831Z,-3.93
2019-02-04T07:03:23.892Z,-3.91
2019-02-04T07:06:39.416Z,-3.87
2019-02-04T07:09:54.551Z,-3.85
2019-02-04T07:13:09.776Z,-3.82
2019-02-04T07:16:25.647Z,-3.78
2019-02-04T07:19:41.169Z,-3.80
2019-02-04T07:22:57.317Z,-3.79
2019-02-04T07:26:12.692Z,-3.73
2019-02-04T07:29:27.957Z,-3.62
2019-02-04T07:32:43.308Z,-3.53
2019-02-04T07:35:58.873Z,-3.51
2019-02-04T07:39:14.406Z,-3.46
2019-02-04T07:42:30.605Z,-3.33
2019-02-04T07:45:46.137Z,-3.19
2019-02-04T07:49:02.460Z,-3.01
2019-02-04T07:52:17.878Z,-2.91
2019-02-04T07:55:33.122Z,-2.87
2019-02-04T07:58:48.818Z,-2.78
2019-02-04T08:02:04.254Z,-2.62
2019-02-04T08:05:19.694Z,-2.49
2019-02-04T08:08:34.796Z,-2.35
2019-02-04T08:11:49.948Z,-2.22
2019-02-04T08:15:06.980Z,-2.07
2019-02-04T08:18:22.336Z,-2.00
2019-02-04T08:21:37.778Z,-1.84
2019-02-04T08:24:53.145Z,-1.62
2019-02-04T08:28:08.783Z,-1.40
2019-02-04T08:31:24.235Z,-1.20
2019-02-04T08:34:39.433Z,-1.01
2019-02-04T08:37:54.962Z,-0.87
2019-02-04T08:41:10.148Z,-0.72
2019-02-04T08:44:25.424Z,-0.54
2019-02-04T08:47:40.516Z,-0.35
2019-02-04T08:50:55.990Z,-0.10
2019-02-04T08:54:11.689Z,0.19
2019-02-04T08:57:27.398Z,0.52
2019-02-04T09:00:42.672Z,0.87
2019-02-04T09:04:00.608Z,0.93
2019-02-04T09:07:16.118Z,1.17
2019-02-04T09:10:31.832Z,1.41
2019-02-04T09:13:47.122Z,1.60
2019-02-04T09:17:02.391Z,1.80
2019-02-04T09:20:17.961Z,2.07
2019-02-04T09:23:34.094Z,2.30
2019-02-04T09:26:49.403Z,2.54
2019-02-04T09:30:05.062Z,2.76
2019-02-04T09:33:20.333Z,2.83
2019-02-04T09:36:35.466Z,3.34
2019-02-04T09:39:50.927Z,3.78
2019-02-04T09:43:06.496Z,4.06
2019-02-04T09:46:21.667Z,4.38
2019-02-04T09:49:36.948Z,4.49
2019-02-04T09:52:52.388Z,4.94
2019-02-04T09:56:09.712Z,5.30
2019-02-04T09:59:25.253Z,5.46
2019-02-04T10:02:40.749Z,5.72
2019-02-04T10:05:55.890Z,5.95
2019-02-04T10:09:11.212Z,6.25
2019-02-04T10:12:26.428Z,6.31
2019-02-04T10:15:42.276Z,6.39
2019-02-04T10:18:58.066Z,6.34
2019-02-04T10:22:13.288Z,6.70
2019-02-04T10:25:29.703Z,6.95
2019-02-04T10:28:45.024Z,7.40
2019-02-04T10:32:00.251Z,7.49
2019-02-04T10:35:17.166Z,7.66
2019-02-04T10:38:32.860Z,7.94
2019-02-04T10:41:48.316Z,7.78
2019-02-04T10:45:03.979Z,8.14
2019-02-04T10:48:19.607Z,8.38
2019-02-04T10:51:34.990Z,8.44
2019-02-04T10:54:50.445Z,8.89
2019-02-04T10:58:07.317Z,9.03
2019-02-04T11:01:22.402Z,9.05
2019-02-04T11:04:37.845Z,9.02
2019-02-04T11:07:52.978Z,9.20
2019-02-04T11:11:07.773Z,8.96
2019-02-04T11:14:24.068Z,8.47
2019-02-04T11:17:39.641Z,8.69
2019-02-04T11:20:58.227Z,8.95
2019-02-04T11:24:12.537Z,8.78
2019-02-04T11:27:27.782Z,8.67
2019-02-04T11:30:48.156Z,8.23
2019-02-04T11:34:03.398Z,7.65
2019-02-04T11:37:19.434Z,7.49
2019-02-04T11:40:35.795Z,7.15
2019-02-04T11:43:51.016Z,7.25
2019-02-04T11:47:06.549Z,7.36
2019-02-04T11:50:21.829Z,7.45
2019-02-04T11:53:37.659Z,7.57
2019-02-04T11:56:53.107Z,7.71
2019-02-04T12:00:11.620Z,7.48
2019-02-04T12:03:27.532Z,7.58
2019-02-04T12:06:42.800Z,7.57
2019-02-04T12:09:58.365Z,7.28
2019-02-04T12:13:14.530Z,7.35
2019-02-04T12:16:30.591Z,7.47
2019-02-04T12:19:47.203Z,7.00
2019-02-04T12:23:02.351Z,6.93
2019-02-04T12:26:17.848Z,7.00
2019-02-04T12:29:32.987Z,7.07
2019-02-04T12:32:48.735Z,6.86
2019-02-04T12:36:04.160Z,7.12
2019-02-04T12:39:27.607Z,7.11
2019-02-04T12:42:53.519Z,7.21
2019-02-04T12:46:09.861Z,7.33
2019-02-04T12:49:25.148Z,6.98
2019-02-04T12:52:58.919Z,6.87
2019-02-04T12:56:15.738Z,7.00
2019-02-04T12:59:31.429Z,6.81
2019-02-04T13:02:47.060Z,6.71
2019-02-04T13:06:03.401Z,6.53
2019-02-04T13:09:20.162Z,6.20
2019-02-04T13:12:35.945Z,5.99
2019-02-04T13:15:54.257Z,6.29
2019-02-04T13:19:13.322Z,6.38
2019-02-04T13:22:30.001Z,6.16
2019-02-04T13:25:45.708Z,6.27
2019-02-04T13:29:02.010Z,6.50
2019-02-04T13:32:17.740Z,6.48
2019-02-04T13:35:35.419Z,6.46
2019-02-04T13:38:50.705Z,6.49
2019-02-04T13:42:16.736Z,6.31
2019-02-04T13:45:42.545Z,6.20
2019-02-04T13:49:11.707Z,6.42
2019-02-04T13:52:53.444Z,6.45
2019-02-04T13:56:12.251Z,6.25
2019-02-04T13:59:40.040Z,6.25
2019-02-04T14:02:59.383Z,6.33
2019-02-04T14:06:12.869Z,6.13
2019-02-04T14:09:28.033Z,5.91
2019-02-04T14:12:45.542Z,6.00
2019-02-04T14:16:00.830Z,6.10
2019-02-04T14:19:16.176Z,6.08
2019-02-04T14:22:31.572Z,6.22
2019-02-04T14:25:47.208Z,6.11
2019-02-04T14:29:03.865Z,6.02
2019-02-04T14:32:19.121Z,6.26
2019-02-04T14:35:34.262Z,6.25
2019-02-04T14:38:52.174Z,6.21
2019-02-04T14:42:11.052Z,6.27
2019-02-04T14:50:43.877Z,5.95
2019-02-04T14:54:22.804Z,5.89
2019-02-04T14:57:57.805Z,5.72
2019-02-04T15:01:41.368Z,5.60
2019-02-04T15:05:50.262Z,5.51
2019-02-04T15:09:51.661Z,5.23
2019-02-04T15:13:50.378Z,5.20
2019-02-04T15:17:37.930Z,5.14
2019-02-04T15:21:30.846Z,5.17
2019-02-04T15:25:39.093Z,5.08
2019-02-04T15:29:12.414Z,4.87
2019-02-04T15:32:54.844Z,4.87
2019-02-04T15:36:34.050Z,4.83
2019-02-04T15:40:25.808Z,4.69
2019-02-04T15:44:15.554Z,4.52
2019-02-04T15:47:52.598Z,4.64
2019-02-04T15:51:21.252Z,4.49
2019-02-04T15:54:36.414Z,4.28
2019-02-04T15:57:52.239Z,4.25
2019-02-04T16:01:07.704Z,3.96
2019-02-04T16:04:27.172Z,3.88
2019-02-04T16:07:42.667Z,3.57
2019-02-04T16:10:57.920Z,3.70
2019-02-04T16:14:14.117Z,3.82
2019-02-04T16:17:29.808Z,3.84
2019-02-04T16:20:44.891Z,3.79
2019-02-04T16:23:59.735Z,3.86
2019-02-04T16:27:16.221Z,3.82
2019-02-04T16:30:31.708Z,3.72
2019-02-04T16:33:51.630Z,3.63
2019-02-04T16:37:07.706Z,3.45
2019-02-04T16:40:23.383Z,3.14
2019-02-04T16:43:38.896Z,2.82
2019-02-04T16:46:54.757Z,2.70
2019-02-04T16:50:18.791Z,2.64
2019-02-04T16:53:33.882Z,2.53
2019-02-04T16:56:49.298Z,2.48
2019-02-04T17:00:04.923Z,2.22
2019-02-04T17:03:20.090Z,2.16
2019-02-04T17:06:35.819Z,2.14
2019-02-04T17:09:51.189Z,2.01
2019-02-04T17:13:06.327Z,1.86
2019-02-04T17:16:21.616Z,1.71
2019-02-04T17:19:37.151Z,1.67
2019-02-04T17:22:52.394Z,1.60
2019-02-04T17:26:07.817Z,1.52
2019-02-04T17:29:22.978Z,1.43
2019-02-04T17:32:38.455Z,1.33
2019-02-04T17:35:53.655Z,1.19
2019-02-04T17:39:09.179Z,1.10
2019-02-04T17:42:24.575Z,1.14
2019-02-04T17:45:40.083Z,1.11
2019-02-04T17:48:55.150Z,1.10
2019-02-04T17:52:10.286Z,1.12
2019-02-04T17:55:25.890Z,1.12
2019-02-04T17:58:41.506Z,1.08
2019-02-04T18:01:57.929Z,1.03
2019-02-04T18:05:13.147Z,1.03
2019-02-04T18:08:28.350Z,0.99
2019-02-04T18:11:43.640Z,0.90
2019-02-04T18:14:58.865Z,0.62
2019-02-04T18:18:14.192Z,0.50
2019-02-04T18:21:29.330Z,0.51
2019-02-04T18:24:44.747Z,0.43
2019-02-04T18:28:00.169Z,0.45
2019-02-04T18:31:16.716Z,0.35
2019-02-04T18:34:31.854Z,0.27
2019-02-04T18:37:47.449Z,0.20
2019-02-04T18:41:02.677Z,0.19
2019-02-04T18:44:18.124Z,0.14
2019-02-04T18:47:33.442Z,-0.05
2019-02-04T18:50:48.879Z,-0.17
2019-02-04T18:54:04.119Z,-0.20
2019-02-04T18:57:19.386Z,-0.23
2019-02-04T19:00:34.585Z,-0.15
2019-02-04T19:03:50.260Z,-0.13
2019-02-04T19:07:05.847Z,-0.13
2019-02-04T19:10:21.488Z,-0.16
2019-02-04T19:13:36.696Z,-0.37
2019-02-04T19:16:52.170Z,-0.44
2019-02-04T19:20:10.082Z,-0.42
2019-02-04T19:23:27.035Z,-0.39
2019-02-04T19:26:42.419Z,-0.36
2019-02-04T19:29:57.675Z,-0.44
2019-02-04T19:33:12.820Z,-0.61
2019-02-04T19:36:28.272Z,-0.69
2019-02-04T19:39:43.663Z,-0.56
2019-02-04T19:42:59.051Z,-0.50
2019-02-04T19:46:14.544Z,-0.45
2019-02-04T19:49:29.940Z,-0.53
2019-02-04T19:52:45.330Z,-0.55
2019-02-04T19:56:00.751Z,-0.51
2019-02-04T19:59:16.387Z,-0.50
2019-02-04T20:02:31.729Z,-0.43
2019-02-04T20:05:46.987Z,-0.37
2019-02-04T20:09:05.263Z,-0.38
2019-02-04T20:12:20.602Z,-0.43
2019-02-04T20:15:36.016Z,-0.46
2019-02-04T20:18:51.407Z,-0.53
2019-02-04T20:22:06.605Z,-0.61
2019-02-04T20:25:22.614Z,-0.77
2019-02-04T20:28:38.635Z,-0.71
2019-02-04T20:31:54.030Z,-0.81
2019-02-04T20:35:09.637Z,-0.72
2019-02-04T20:38:27.292Z,-0.78
2019-02-04T20:41:42.255Z,-0.71
2019-02-04T20:44:57.646Z,-0.69
2019-02-04T20:48:12.770Z,-0.61
2019-02-04T20:51:27.882Z,-0.61
2019-02-04T20:54:44.935Z,-0.64
2019-02-04T20:57:59.547Z,-0.64
2019-02-04T21:01:14.960Z,-0.69
2019-02-04T21:04:30.452Z,-0.71
2019-02-04T21:07:46.204Z,-0.67
2019-02-04T21:11:02.025Z,-0.66
2019-02-04T21:14:17.169Z,-0.70
2019-02-04T21:17:32.479Z,-0.61
2019-02-04T21:20:47.511Z,-0.50
2019-02-04T21:24:03.386Z,-0.45
2019-02-04T21:27:18.608Z,-0.39
2019-02-04T21:30:36.164Z,-0.36
2019-02-04T21:33:51.604Z,-0.33
2019-02-04T21:37:07.236Z,-0.36
2019-02-04T21:40:22.672Z,-0.46
2019-02-04T21:43:38.064Z,-0.44
2019-02-04T21:46:53.210Z,-0.61
2019-02-04T21:50:11.583Z,-0.66
2019-02-04T21:53:27.942Z,-0.45
2019-02-04T21:56:43.732Z,-0.31
2019-02-04T21:59:59.125Z,-0.38
2019-02-04T22:03:14.608Z,-0.26
2019-02-04T22:06:30.140Z,-0.19
2019-02-04T22:09:45.351Z,-0.40
2019-02-04T22:13:02.755Z,-0.44
2019-02-04T22:16:17.976Z,-0.30
2019-02-04T22:19:33.174Z,-0.17
2019-02-04T22:22:48.597Z,-0.13
2019-02-04T22:26:04.047Z,0.01
2019-02-04T22:29:19.280Z,0.11
2019-02-04T22:32:34.474Z,0.13
2019-02-04T22:35:49.854Z,-0.03
2019-02-04T22:39:08.046Z,-0.07
2019-02-04T22:42:23.441Z,-0.05
2019-02-04T22:45:38.723Z,-0.02
2019-02-04T22:48:53.983Z,0.12
2019-02-04T22:52:09.298Z,0.20
2019-02-04T22:55:32.080Z,0.17
2019-02-04T22:58:41.863Z,0.24
2019-02-04T23:01:58.150Z,0.09
2019-02-04T23:05:13.716Z,0.10
2019-02-04T23:08:28.978Z,0.14
2019-02-04T23:11:44.486Z,0.17
2019-02-04T23:14:59.662Z,0.29
2019-02-04T23:18:15.027Z,0.30
2019-02-04T23:21:30.412Z,0.39
2019-02-04T23:24:46.307Z,0.38
2019-02-04T23:28:01.742Z,0.45
2019-02-04T23:31:17.166Z,0.29
2019-02-04T23:34:32.483Z,0.22
2019-02-04T23:37:47.923Z,0.33
2019-02-04T23:41:03.536Z,0.45
2019-02-04T23:44:19.108Z,0.30
2019-02-04T23:47:34.470Z,0.23
2019-02-04T23:50:49.507Z,0.36
2019-02-04T23:54:05.430Z,0.47
2019-02-04T23:57:20.755Z,0.49
